KPPF/PPF METAR and TAF weather

Enter ICAO airport designator
Station Type Date Time Source
KPPF METAR 2018/12/18 18:52 UTC NOAA

KPPF 181852Z AUTO 17008KT CLR 14/06 A3003 RMK AO2 SLP170 T01390056


Station Type Date Time Source
KPPF Decoded METAR 2018/12/18 18:52 UTC NOAA

PARSONS TRI-CITY AIRPORT, KS, United States (KPPF) 37-20N 95-30W 274M
Dec 18, 2018 - 01:52 PM EST / 2018.12.18 1852 UTC
Wind: from the S (170 degrees) at 9 MPH (8 KT):0
Sky conditions: clear
Temperature: 57.0 F (13.9 C)
Dew Point: 42.1 F (5.6 C)
Relative Humidity: 57%
Pressure (altimeter): 30.03 in. Hg (1016 hPa)
ob: KPPF 181852Z AUTO 17008KT CLR 14/06 A3003 RMK AO2 SLP170 T01390056
cycle: 19

Station Type Date Time Source
KPPF TAF UTC NOAA

Error!


Example: see airport list